PWSweather.com
Personal Weather Stations
Station Observations
MENWDWX1
Menstrie, ScotlandGB

MenstrieScotlandGB

Lat: 56.148322, Lon: -3.85483

Elevation: 62

Station Type: Davis Vantage Pro 2

High Low Average
Temperature 61.2°F16.2°C 40.2°F4.6°C 51.4°F10.8°C
Dew Point 53.2°F11.8°C 34.2°F1.2°C 44.6°F7.0°C
Winds 15.0 mph 24.1 kmh Calm Calm 4.0 mph SW6.4 kmh SW
Wind Gusts 20.7 mph33.3 kmh -- 7.0 mph11.3 kmh
Humidity 82% 75% 78%
Pressure 30.15 in1021.0 mb 30.08 in1018.6 mb -
Precipitation 0.01 in0.3 mm - -
Hour Temp Dew Point Humidity Winds Wind Gusts Pressure Precip Precip Rate Daily Precip Total
12:00 AM 41.6°F5.3°C 35.6°F2.0°C 79% Calm Calm -- 30.12 in1020.0 mb - 0.00 in0.0 mm 0.00 in0.0 mm
12:05 AM 41.6°F5.3°C 35.6°F2.0°C 79% Calm Calm -- 30.12 in1020.0 mb - 0.00 in0.0 mm 0.00 in0.0 mm
12:10 AM 41.5°F5.3°C 35.5°F1.9°C 79% Calm Calm -- 30.12 in1020.0 mb - 0.00 in0.0 mm 0.00 in0.0 mm
12:15 AM 41.3°F5.2°C 35.3°F1.8°C 79% Calm Calm -- 30.13 in1020.3 mb - 0.00 in0.0 mm 0.00 in0.0 mm
12:20 AM 41.0°F5.0°C 35.0°F1.7°C 79% Calm Calm 2.3 mph3.7 kmh 30.13 in1020.3 mb - 0.00 in0.0 mm 0.00 in0.0 mm
12:25 AM 40.7°F4.8°C 34.7°F1.5°C 79% Calm Calm 1.2 mph1.9 kmh 30.13 in1020.3 mb - 0.00 in0.0 mm 0.00 in0.0 mm
12:30 AM 40.9°F4.9°C 34.9°F1.6°C 79% Calm Calm -- 30.13 in1020.3 mb - 0.00 in0.0 mm 0.00 in0.0 mm
12:35 AM 40.9°F4.9°C 34.9°F1.6°C 79% Calm Calm -- 30.13 in1020.3 mb - 0.00 in0.0 mm 0.00 in0.0 mm
12:40 AM 40.7°F4.8°C 34.7°F1.5°C 79% Calm Calm -- 30.13 in1020.3 mb - 0.00 in0.0 mm 0.00 in0.0 mm
12:45 AM 40.7°F4.8°C 34.7°F1.5°C 79% Calm Calm -- 30.13 in1020.3 mb - 0.00 in0.0 mm 0.00 in0.0 mm
12:50 AM 40.6°F4.8°C 34.6°F1.4°C 79% Calm Calm -- 30.13 in1020.3 mb - 0.00 in0.0 mm 0.00 in0.0 mm
12:55 AM 40.5°F4.7°C 34.5°F1.4°C 79% Calm Calm -- 30.13 in1020.3 mb - 0.00 in0.0 mm 0.00 in0.0 mm
01:00 AM 40.3°F4.6°C 34.3°F1.3°C 79% Calm Calm -- 30.13 in1020.3 mb - 0.00 in0.0 mm 0.00 in0.0 mm
01:05 AM 40.2°F4.6°C 34.2°F1.2°C 79% Calm Calm -- 30.14 in1020.7 mb - 0.00 in0.0 mm 0.00 in0.0 mm
01:10 AM 40.3°F4.6°C 34.4°F1.3°C 79% Calm Calm -- 30.14 in1020.7 mb - 0.00 in0.0 mm 0.00 in0.0 mm
01:15 AM 40.4°F4.7°C 34.4°F1.3°C 79% 3.5 mph ENE5.6 kmh ENE 3.5 mph5.6 kmh 30.13 in1020.3 mb - 0.00 in0.0 mm 0.00 in0.0 mm
01:20 AM 40.7°F4.8°C 34.7°F1.5°C 79% 2.3 mph ENE3.7 kmh ENE 3.5 mph5.6 kmh 30.13 in1020.3 mb - 0.00 in0.0 mm 0.00 in0.0 mm
01:25 AM 41.0°F5.0°C 35.9°F2.2°C 82% Calm Calm 1.2 mph1.9 kmh 30.13 in1020.3 mb - 0.00 in0.0 mm 0.00 in0.0 mm
01:30 AM 41.3°F5.2°C 35.3°F1.8°C 79% 4.6 mph ENE7.4 kmh ENE 4.6 mph7.4 kmh 30.13 in1020.3 mb - 0.00 in0.0 mm 0.00 in0.0 mm
01:35 AM 41.7°F5.4°C 35.7°F2.1°C 79% 3.5 mph E5.6 kmh E 3.5 mph5.6 kmh 30.14 in1020.7 mb - 0.00 in0.0 mm 0.00 in0.0 mm
01:40 AM 42.1°F5.6°C 36.0°F2.2°C 79% 3.5 mph E5.6 kmh E 3.5 mph5.6 kmh 30.14 in1020.7 mb - 0.00 in0.0 mm 0.00 in0.0 mm
01:45 AM 42.3°F5.7°C 35.9°F2.2°C 78% 1.2 mph E1.9 kmh E 2.3 mph3.7 kmh 30.14 in1020.7 mb - 0.00 in0.0 mm 0.00 in0.0 mm
01:50 AM 42.5°F5.8°C 36.4°F2.4°C 79% Calm Calm 1.2 mph1.9 kmh 30.14 in1020.7 mb - 0.00 in0.0 mm 0.00 in0.0 mm
01:55 AM 42.6°F5.9°C 36.6°F2.6°C 79% Calm Calm 1.2 mph1.9 kmh 30.14 in1020.7 mb - 0.00 in0.0 mm 0.00 in0.0 mm
02:00 AM 42.8°F6.0°C 36.7°F2.6°C 79% 1.2 mph E1.9 kmh E 2.3 mph3.7 kmh 30.14 in1020.7 mb - 0.00 in0.0 mm 0.00 in0.0 mm
02:05 AM 43.0°F6.1°C 36.6°F2.6°C 78% 1.2 mph E1.9 kmh E 2.3 mph3.7 kmh 30.14 in1020.7 mb - 0.00 in0.0 mm 0.00 in0.0 mm
02:10 AM 43.1°F6.2°C 36.7°F2.6°C 78% Calm Calm 1.2 mph1.9 kmh 30.14 in1020.7 mb - 0.00 in0.0 mm 0.00 in0.0 mm
02:15 AM 43.2°F6.2°C 36.8°F2.7°C 78% Calm Calm -- 30.14 in1020.7 mb - 0.00 in0.0 mm 0.00 in0.0 mm
02:20 AM 43.3°F6.3°C 37.2°F2.9°C 79% Calm Calm -- 30.14 in1020.7 mb - 0.00 in0.0 mm 0.00 in0.0 mm
02:25 AM 43.4°F6.3°C 37.3°F2.9°C 79% Calm Calm -- 30.14 in1020.7 mb - 0.00 in0.0 mm 0.00 in0.0 mm
02:30 AM 43.4°F6.3°C 37.3°F2.9°C 79% Calm Calm -- 30.14 in1020.7 mb - 0.00 in0.0 mm 0.00 in0.0 mm
02:35 AM 43.5°F6.4°C 37.4°F3.0°C 79% 1.2 mph NE1.9 kmh NE 2.3 mph3.7 kmh 30.14 in1020.7 mb - 0.00 in0.0 mm 0.00 in0.0 mm
02:40 AM 43.7°F6.5°C 37.6°F3.1°C 79% Calm Calm -- 30.14 in1020.7 mb - 0.00 in0.0 mm 0.00 in0.0 mm
02:45 AM 43.8°F6.6°C 37.4°F3.0°C 78% Calm Calm -- 30.14 in1020.7 mb - 0.00 in0.0 mm 0.00 in0.0 mm
02:50 AM 43.9°F6.6°C 37.5°F3.1°C 78% Calm Calm -- 30.14 in1020.7 mb - 0.00 in0.0 mm 0.00 in0.0 mm
02:55 AM 44.0°F6.7°C 37.6°F3.1°C 78% Calm Calm -- 30.14 in1020.7 mb - 0.00 in0.0 mm 0.00 in0.0 mm
03:00 AM 44.0°F6.7°C 37.6°F3.1°C 78% Calm Calm -- 30.14 in1020.7 mb - 0.00 in0.0 mm 0.00 in0.0 mm
03:05 AM 44.0°F6.7°C 37.6°F3.1°C 78% Calm Calm -- 30.14 in1020.7 mb - 0.00 in0.0 mm 0.00 in0.0 mm
03:10 AM 44.1°F6.7°C 37.6°F3.1°C 78% Calm Calm -- 30.14 in1020.7 mb - 0.00 in0.0 mm 0.00 in0.0 mm
03:15 AM 44.1°F6.7°C 37.7°F3.2°C 78% Calm Calm -- 30.14 in1020.7 mb - 0.00 in0.0 mm 0.00 in0.0 mm
03:20 AM 44.2°F6.8°C 38.1°F3.4°C 79% Calm Calm -- 30.14 in1020.7 mb - 0.00 in0.0 mm 0.00 in0.0 mm
03:25 AM 44.2°F6.8°C 37.8°F3.2°C 78% 1.2 mph NE1.9 kmh NE 2.3 mph3.7 kmh 30.14 in1020.7 mb - 0.00 in0.0 mm 0.00 in0.0 mm
03:30 AM 44.3°F6.8°C 37.9°F3.3°C 78% Calm Calm 1.2 mph1.9 kmh 30.14 in1020.7 mb - 0.00 in0.0 mm 0.00 in0.0 mm
03:35 AM 44.4°F6.9°C 38.0°F3.3°C 78% 1.2 mph NE1.9 kmh NE 2.3 mph3.7 kmh 30.14 in1020.7 mb - 0.00 in0.0 mm 0.00 in0.0 mm
03:40 AM 44.5°F6.9°C 38.1°F3.4°C 78% 1.2 mph NE1.9 kmh NE 1.2 mph1.9 kmh 30.14 in1020.7 mb - 0.00 in0.0 mm 0.00 in0.0 mm
03:45 AM 44.5°F6.9°C 38.1°F3.4°C 78% 1.2 mph WSW1.9 kmh WSW 2.3 mph3.7 kmh 30.14 in1020.7 mb - 0.00 in0.0 mm 0.00 in0.0 mm
03:50 AM 44.5°F6.9°C 38.1°F3.4°C 78% 1.2 mph WSW1.9 kmh WSW 2.3 mph3.7 kmh 30.14 in1020.7 mb - 0.00 in0.0 mm 0.00 in0.0 mm
03:55 AM 44.5°F6.9°C 38.1°F3.4°C 78% Calm Calm 1.2 mph1.9 kmh 30.14 in1020.7 mb - 0.00 in0.0 mm 0.00 in0.0 mm
04:00 AM 44.4°F6.9°C 38.0°F3.3°C 78% Calm Calm 1.2 mph1.9 kmh 30.14 in1020.7 mb - 0.00 in0.0 mm 0.00 in0.0 mm
04:05 AM 44.4°F6.9°C 38.0°F3.3°C 78% Calm Calm -- 30.14 in1020.7 mb - 0.00 in0.0 mm 0.00 in0.0 mm
04:10 AM 44.4°F6.9°C 38.0°F3.3°C 78% Calm Calm -- 30.14 in1020.7 mb - 0.00 in0.0 mm 0.00 in0.0 mm
04:15 AM 44.4°F6.9°C 38.0°F3.3°C 78% Calm Calm -- 30.14 in1020.7 mb - 0.00 in0.0 mm 0.00 in0.0 mm
04:20 AM 44.4°F6.9°C 38.0°F3.3°C 78% Calm Calm -- 30.14 in1020.7 mb - 0.00 in0.0 mm 0.00 in0.0 mm
04:25 AM 44.5°F6.9°C 38.1°F3.4°C 78% Calm Calm -- 30.15 in1021.0 mb - 0.00 in0.0 mm 0.00 in0.0 mm
04:30 AM 44.5°F6.9°C 38.1°F3.4°C 78% Calm Calm -- 30.14 in1020.7 mb - 0.00 in0.0 mm 0.00 in0.0 mm
04:35 AM 44.5°F6.9°C 38.1°F3.4°C 78% Calm Calm -- 30.14 in1020.7 mb - 0.00 in0.0 mm 0.00 in0.0 mm
04:40 AM 44.5°F6.9°C 38.1°F3.4°C 78% Calm Calm -- 30.14 in1020.7 mb - 0.00 in0.0 mm 0.00 in0.0 mm
04:45 AM 44.5°F6.9°C 38.1°F3.4°C 78% Calm Calm -- 30.14 in1020.7 mb - 0.00 in0.0 mm 0.00 in0.0 mm
04:50 AM 44.6°F7.0°C 38.1°F3.4°C 78% Calm Calm -- 30.14 in1020.7 mb - 0.00 in0.0 mm 0.00 in0.0 mm
04:55 AM 44.6°F7.0°C 38.2°F3.4°C 78% Calm Calm -- 30.14 in1020.7 mb - 0.00 in0.0 mm 0.00 in0.0 mm
05:00 AM 44.6°F7.0°C 38.2°F3.4°C 78% Calm Calm -- 30.15 in1021.0 mb - 0.00 in0.0 mm 0.00 in0.0 mm
05:05 AM 44.6°F7.0°C 38.2°F3.4°C 78% Calm Calm -- 30.14 in1020.7 mb - 0.01 in0.3 mm 0.01 in0.3 mm
05:10 AM 44.6°F7.0°C 38.2°F3.4°C 78% Calm Calm -- 30.14 in1020.7 mb - 0.00 in0.0 mm 0.01 in0.3 mm
05:15 AM 44.6°F7.0°C 38.2°F3.4°C 78% Calm Calm -- 30.14 in1020.7 mb - 0.00 in0.0 mm 0.01 in0.3 mm
05:20 AM 44.6°F7.0°C 38.2°F3.4°C 78% Calm Calm -- 30.14 in1020.7 mb - 0.00 in0.0 mm 0.01 in0.3 mm
05:25 AM 44.6°F7.0°C 38.2°F3.4°C 78% Calm Calm -- 30.14 in1020.7 mb - 0.00 in0.0 mm 0.01 in0.3 mm
05:30 AM 44.6°F7.0°C 38.2°F3.4°C 78% Calm Calm -- 30.14 in1020.7 mb - 0.00 in0.0 mm 0.01 in0.3 mm
05:35 AM 44.7°F7.1°C 38.2°F3.4°C 78% Calm Calm -- 30.14 in1020.7 mb - 0.00 in0.0 mm 0.01 in0.3 mm
05:40 AM 44.7°F7.1°C 38.3°F3.5°C 78% Calm Calm -- 30.14 in1020.7 mb - 0.00 in0.0 mm 0.01 in0.3 mm
05:45 AM 44.7°F7.1°C 38.3°F3.5°C 78% Calm Calm -- 30.14 in1020.7 mb - 0.00 in0.0 mm 0.01 in0.3 mm
05:50 AM 44.6°F7.0°C 38.2°F3.4°C 78% Calm Calm -- 30.14 in1020.7 mb - 0.00 in0.0 mm 0.01 in0.3 mm
05:55 AM 44.6°F7.0°C 38.1°F3.4°C 78% Calm Calm -- 30.14 in1020.7 mb - 0.00 in0.0 mm 0.01 in0.3 mm
06:00 AM 44.7°F7.1°C 38.3°F3.5°C 78% Calm Calm -- 30.14 in1020.7 mb - 0.00 in0.0 mm 0.01 in0.3 mm
06:05 AM 44.7°F7.1°C 38.3°F3.5°C 78% Calm Calm -- 30.13 in1020.3 mb - 0.00 in0.0 mm 0.01 in0.3 mm
06:10 AM 44.8°F7.1°C 38.4°F3.6°C 78% Calm Calm -- 30.13 in1020.3 mb - 0.00 in0.0 mm 0.01 in0.3 mm
06:15 AM 45.0°F7.2°C 38.5°F3.6°C 78% Calm Calm -- 30.14 in1020.7 mb - 0.00 in0.0 mm 0.01 in0.3 mm
06:20 AM 45.1°F7.3°C 38.6°F3.7°C 78% Calm Calm -- 30.14 in1020.7 mb - 0.00 in0.0 mm 0.01 in0.3 mm
06:25 AM 45.1°F7.3°C 38.6°F3.7°C 78% Calm Calm -- 30.14 in1020.7 mb - 0.00 in0.0 mm 0.01 in0.3 mm
06:30 AM 45.1°F7.3°C 38.6°F3.7°C 78% Calm Calm -- 30.13 in1020.3 mb - 0.00 in0.0 mm 0.01 in0.3 mm
06:35 AM 45.1°F7.3°C 38.6°F3.7°C 78% Calm Calm -- 30.14 in1020.7 mb - 0.00 in0.0 mm 0.01 in0.3 mm
06:40 AM 45.0°F7.2°C 38.5°F3.6°C 78% Calm Calm -- 30.14 in1020.7 mb - 0.00 in0.0 mm 0.01 in0.3 mm
06:45 AM 44.8°F7.1°C 38.4°F3.6°C 78% 1.2 mph WSW1.9 kmh WSW 3.5 mph5.6 kmh 30.14 in1020.7 mb - 0.00 in0.0 mm 0.01 in0.3 mm
06:50 AM 44.7°F7.1°C 38.3°F3.5°C 78% 2.3 mph E3.7 kmh E 3.5 mph5.6 kmh 30.14 in1020.7 mb - 0.00 in0.0 mm 0.01 in0.3 mm
06:55 AM 44.7°F7.1°C 38.3°F3.5°C 78% 3.5 mph ENE5.6 kmh ENE 3.5 mph5.6 kmh 30.14 in1020.7 mb - 0.00 in0.0 mm 0.01 in0.3 mm
07:00 AM 44.7°F7.1°C 38.3°F3.5°C 78% 4.6 mph E7.4 kmh E 6.9 mph11.1 kmh 30.14 in1020.7 mb - 0.00 in0.0 mm 0.01 in0.3 mm
07:05 AM 44.7°F7.1°C 38.3°F3.5°C 78% 2.3 mph E3.7 kmh E 3.5 mph5.6 kmh 30.14 in1020.7 mb - 0.00 in0.0 mm 0.01 in0.3 mm
07:10 AM 44.8°F7.1°C 38.4°F3.6°C 78% 3.5 mph E5.6 kmh E 3.5 mph5.6 kmh 30.14 in1020.7 mb - 0.00 in0.0 mm 0.01 in0.3 mm
07:15 AM 44.8°F7.1°C 38.4°F3.6°C 78% 2.3 mph E3.7 kmh E 3.5 mph5.6 kmh 30.14 in1020.7 mb - 0.00 in0.0 mm 0.01 in0.3 mm
07:20 AM 44.8°F7.1°C 38.4°F3.6°C 78% 2.3 mph E3.7 kmh E 3.5 mph5.6 kmh 30.14 in1020.7 mb - 0.00 in0.0 mm 0.01 in0.3 mm
07:25 AM 44.9°F7.2°C 38.5°F3.6°C 78% 2.3 mph E3.7 kmh E 3.5 mph5.6 kmh 30.14 in1020.7 mb - 0.00 in0.0 mm 0.01 in0.3 mm
07:30 AM 44.9°F7.2°C 38.5°F3.6°C 78% 2.3 mph E3.7 kmh E 3.5 mph5.6 kmh 30.14 in1020.7 mb - 0.00 in0.0 mm 0.01 in0.3 mm
07:35 AM 45.0°F7.2°C 38.5°F3.6°C 78% 2.3 mph E3.7 kmh E 3.5 mph5.6 kmh 30.13 in1020.3 mb - 0.00 in0.0 mm 0.01 in0.3 mm
07:40 AM 45.0°F7.2°C 38.6°F3.7°C 78% 2.3 mph E3.7 kmh E 3.5 mph5.6 kmh 30.13 in1020.3 mb - 0.00 in0.0 mm 0.01 in0.3 mm
07:45 AM 45.1°F7.3°C 38.6°F3.7°C 78% 3.5 mph E5.6 kmh E 3.5 mph5.6 kmh 30.13 in1020.3 mb - 0.00 in0.0 mm 0.01 in0.3 mm
07:50 AM 45.1°F7.3°C 38.6°F3.7°C 78% 1.2 mph E1.9 kmh E 2.3 mph3.7 kmh 30.13 in1020.3 mb - 0.00 in0.0 mm 0.01 in0.3 mm
07:55 AM 45.2°F7.3°C 38.7°F3.7°C 78% 1.2 mph E1.9 kmh E 2.3 mph3.7 kmh 30.13 in1020.3 mb - 0.00 in0.0 mm 0.01 in0.3 mm
08:00 AM 45.3°F7.4°C 38.8°F3.8°C 78% 2.3 mph E3.7 kmh E 3.5 mph5.6 kmh 30.13 in1020.3 mb - 0.00 in0.0 mm 0.01 in0.3 mm
08:05 AM 45.4°F7.4°C 39.3°F4.1°C 79% 2.3 mph E3.7 kmh E 2.3 mph3.7 kmh 30.13 in1020.3 mb - 0.00 in0.0 mm 0.01 in0.3 mm
08:10 AM 45.5°F7.5°C 39.3°F4.1°C 79% 2.3 mph E3.7 kmh E 4.6 mph7.4 kmh 30.13 in1020.3 mb - 0.00 in0.0 mm 0.01 in0.3 mm
08:15 AM 45.6°F7.6°C 39.4°F4.1°C 79% 4.6 mph E7.4 kmh E 4.6 mph7.4 kmh 30.13 in1020.3 mb - 0.00 in0.0 mm 0.01 in0.3 mm
08:20 AM 45.7°F7.6°C 39.5°F4.2°C 79% 3.5 mph ENE5.6 kmh ENE 3.5 mph5.6 kmh 30.13 in1020.3 mb - 0.00 in0.0 mm 0.01 in0.3 mm
08:25 AM 45.8°F7.7°C 39.7°F4.3°C 79% 1.2 mph E1.9 kmh E 2.3 mph3.7 kmh 30.13 in1020.3 mb - 0.00 in0.0 mm 0.01 in0.3 mm
08:30 AM 45.8°F7.7°C 39.7°F4.3°C 79% 3.5 mph E5.6 kmh E 3.5 mph5.6 kmh 30.13 in1020.3 mb - 0.00 in0.0 mm 0.01 in0.3 mm
08:35 AM 45.9°F7.7°C 39.8°F4.3°C 79% 3.5 mph E5.6 kmh E 3.5 mph5.6 kmh 30.13 in1020.3 mb - 0.00 in0.0 mm 0.01 in0.3 mm
08:40 AM 46.1°F7.8°C 39.9°F4.4°C 79% 2.3 mph NE3.7 kmh NE 3.5 mph5.6 kmh 30.13 in1020.3 mb - 0.00 in0.0 mm 0.01 in0.3 mm
08:45 AM 46.3°F7.9°C 40.1°F4.5°C 79% Calm Calm -- 30.13 in1020.3 mb - 0.00 in0.0 mm 0.01 in0.3 mm
08:50 AM 46.4°F8.0°C 40.2°F4.6°C 79% Calm Calm -- 30.13 in1020.3 mb - 0.00 in0.0 mm 0.01 in0.3 mm
08:55 AM 46.6°F8.1°C 40.4°F4.7°C 79% 1.2 mph NE1.9 kmh NE 3.5 mph5.6 kmh 30.13 in1020.3 mb - 0.00 in0.0 mm 0.01 in0.3 mm
09:00 AM 46.7°F8.2°C 40.5°F4.7°C 79% 1.2 mph NE1.9 kmh NE 3.5 mph5.6 kmh 30.13 in1020.3 mb - 0.00 in0.0 mm 0.01 in0.3 mm
09:05 AM 46.9°F8.3°C 40.7°F4.8°C 79% Calm Calm 1.2 mph1.9 kmh 30.13 in1020.3 mb - 0.00 in0.0 mm 0.01 in0.3 mm
09:10 AM 47.1°F8.4°C 40.9°F4.9°C 79% 2.3 mph NE3.7 kmh NE 3.5 mph5.6 kmh 30.13 in1020.3 mb - 0.00 in0.0 mm 0.01 in0.3 mm
09:15 AM 47.3°F8.5°C 41.1°F5.1°C 79% Calm Calm 2.3 mph3.7 kmh 30.13 in1020.3 mb - 0.00 in0.0 mm 0.01 in0.3 mm
09:20 AM 47.6°F8.7°C 41.4°F5.2°C 79% Calm Calm -- 30.12 in1020.0 mb - 0.00 in0.0 mm 0.01 in0.3 mm
09:25 AM 48.0°F8.9°C 41.8°F5.4°C 79% Calm Calm 2.3 mph3.7 kmh 30.13 in1020.3 mb - 0.00 in0.0 mm 0.01 in0.3 mm
09:30 AM 48.5°F9.2°C 42.3°F5.7°C 79% 1.2 mph ENE1.9 kmh ENE 2.3 mph3.7 kmh 30.12 in1020.0 mb - 0.00 in0.0 mm 0.01 in0.3 mm
09:35 AM 48.8°F9.3°C 42.6°F5.9°C 79% 1.2 mph ENE1.9 kmh ENE 2.3 mph3.7 kmh 30.12 in1020.0 mb - 0.00 in0.0 mm 0.01 in0.3 mm
09:40 AM 49.0°F9.4°C 42.8°F6.0°C 79% 1.2 mph ENE1.9 kmh ENE 3.5 mph5.6 kmh 30.12 in1020.0 mb - 0.00 in0.0 mm 0.01 in0.3 mm
09:45 AM 49.1°F9.5°C 42.9°F6.1°C 79% 2.3 mph SSE3.7 kmh SSE 2.3 mph3.7 kmh 30.12 in1020.0 mb - 0.00 in0.0 mm 0.01 in0.3 mm
09:50 AM 49.2°F9.6°C 43.0°F6.1°C 79% 1.2 mph SSE1.9 kmh SSE 2.3 mph3.7 kmh 30.12 in1020.0 mb - 0.00 in0.0 mm 0.01 in0.3 mm
09:55 AM 49.3°F9.6°C 43.0°F6.1°C 79% 1.2 mph S1.9 kmh S 1.2 mph1.9 kmh 30.12 in1020.0 mb - 0.00 in0.0 mm 0.01 in0.3 mm
10:00 AM 49.4°F9.7°C 43.2°F6.2°C 79% Calm Calm -- 30.12 in1020.0 mb - 0.00 in0.0 mm 0.01 in0.3 mm
10:05 AM 49.6°F9.8°C 43.3°F6.3°C 79% 1.2 mph S1.9 kmh S 2.3 mph3.7 kmh 30.12 in1020.0 mb - 0.00 in0.0 mm 0.01 in0.3 mm
10:10 AM 49.8°F9.9°C 43.6°F6.4°C 79% 1.2 mph SW1.9 kmh SW 2.3 mph3.7 kmh 30.12 in1020.0 mb - 0.00 in0.0 mm 0.01 in0.3 mm
10:15 AM 50.1°F10.1°C 43.8°F6.6°C 79% 2.3 mph SW3.7 kmh SW 3.5 mph5.6 kmh 30.11 in1019.6 mb - 0.00 in0.0 mm 0.01 in0.3 mm
10:20 AM 50.2°F10.1°C 44.0°F6.7°C 79% 1.2 mph SW1.9 kmh SW 1.2 mph1.9 kmh 30.12 in1020.0 mb - 0.00 in0.0 mm 0.01 in0.3 mm
10:25 AM 50.5°F10.3°C 44.2°F6.8°C 79% Calm Calm -- 30.11 in1019.6 mb - 0.00 in0.0 mm 0.01 in0.3 mm
10:30 AM 50.7°F10.4°C 44.4°F6.9°C 79% Calm Calm -- 30.11 in1019.6 mb - 0.00 in0.0 mm 0.01 in0.3 mm
10:35 AM 50.8°F10.4°C 44.2°F6.8°C 78% Calm Calm -- 30.11 in1019.6 mb - 0.00 in0.0 mm 0.01 in0.3 mm
10:40 AM 51.0°F10.6°C 44.4°F6.9°C 78% Calm Calm -- 30.11 in1019.6 mb - 0.00 in0.0 mm 0.01 in0.3 mm
10:45 AM 51.3°F10.7°C 44.7°F7.1°C 78% Calm Calm -- 30.11 in1019.6 mb - 0.00 in0.0 mm 0.01 in0.3 mm
10:50 AM 51.5°F10.8°C 44.9°F7.2°C 78% Calm Calm -- 30.11 in1019.6 mb - 0.00 in0.0 mm 0.01 in0.3 mm
10:55 AM 51.8°F11.0°C 45.2°F7.3°C 78% Calm Calm -- 30.11 in1019.6 mb - 0.00 in0.0 mm 0.01 in0.3 mm
11:00 AM 52.0°F11.1°C 45.4°F7.4°C 78% Calm Calm -- 30.11 in1019.6 mb - 0.00 in0.0 mm 0.01 in0.3 mm
11:05 AM 52.3°F11.3°C 45.7°F7.6°C 78% Calm Calm -- 30.11 in1019.6 mb - 0.00 in0.0 mm 0.01 in0.3 mm
11:10 AM 52.7°F11.5°C 46.0°F7.8°C 78% Calm Calm -- 30.11 in1019.6 mb - 0.00 in0.0 mm 0.01 in0.3 mm
11:15 AM 53.0°F11.7°C 46.0°F7.8°C 77% Calm Calm -- 30.10 in1019.3 mb - 0.00 in0.0 mm 0.01 in0.3 mm
11:20 AM 53.3°F11.8°C 46.3°F7.9°C 77% Calm Calm -- 30.11 in1019.6 mb - 0.00 in0.0 mm 0.01 in0.3 mm
11:25 AM 53.9°F12.2°C 46.9°F8.3°C 77% 4.6 mph WSW7.4 kmh WSW 8.1 mph13.0 kmh 30.10 in1019.3 mb - 0.00 in0.0 mm 0.01 in0.3 mm
11:30 AM 54.7°F12.6°C 47.6°F8.7°C 77% 4.6 mph W7.4 kmh W 11.5 mph18.5 kmh 30.11 in1019.6 mb - 0.00 in0.0 mm 0.01 in0.3 mm
11:35 AM 55.3°F12.9°C 48.2°F9.0°C 77% 4.6 mph WSW7.4 kmh WSW 4.6 mph7.4 kmh 30.10 in1019.3 mb - 0.00 in0.0 mm 0.01 in0.3 mm
11:40 AM 55.7°F13.2°C 48.6°F9.2°C 77% 4.6 mph WSW7.4 kmh WSW 9.2 mph14.8 kmh 30.10 in1019.3 mb - 0.00 in0.0 mm 0.01 in0.3 mm
11:45 AM 56.1°F13.4°C 49.0°F9.4°C 77% 4.6 mph W7.4 kmh W 4.6 mph7.4 kmh 30.10 in1019.3 mb - 0.00 in0.0 mm 0.01 in0.3 mm
11:50 AM 56.5°F13.6°C 49.4°F9.7°C 77% 5.8 mph W9.3 kmh W 11.5 mph18.5 kmh 30.10 in1019.3 mb - 0.00 in0.0 mm 0.01 in0.3 mm
11:55 AM 57.1°F13.9°C 49.9°F9.9°C 77% 4.6 mph WSW7.4 kmh WSW 10.4 mph16.7 kmh 30.10 in1019.3 mb - 0.00 in0.0 mm 0.01 in0.3 mm
12:00 PM 57.7°F14.3°C 50.5°F10.3°C 77% 4.6 mph W7.4 kmh W 6.9 mph11.1 kmh 30.10 in1019.3 mb - 0.00 in0.0 mm 0.01 in0.3 mm
12:05 PM 58.1°F14.5°C 51.0°F10.6°C 77% 4.6 mph WSW7.4 kmh WSW 9.2 mph14.8 kmh 30.10 in1019.3 mb - 0.00 in0.0 mm 0.01 in0.3 mm
12:10 PM 58.3°F14.6°C 51.2°F10.7°C 77% 5.8 mph W9.3 kmh W 15.0 mph24.1 kmh 30.10 in1019.3 mb - 0.00 in0.0 mm 0.01 in0.3 mm
12:15 PM 58.8°F14.9°C 51.6°F10.9°C 77% 6.9 mph W11.1 kmh W 9.2 mph14.8 kmh 30.10 in1019.3 mb - 0.00 in0.0 mm 0.01 in0.3 mm
12:20 PM 59.5°F15.3°C 52.2°F11.2°C 77% 5.8 mph WSW9.3 kmh WSW 11.5 mph18.5 kmh 30.10 in1019.3 mb - 0.00 in0.0 mm 0.01 in0.3 mm
12:25 PM 59.8°F15.4°C 52.6°F11.4°C 77% 8.1 mph WSW13.0 kmh WSW 17.3 mph27.8 kmh 30.10 in1019.3 mb - 0.00 in0.0 mm 0.01 in0.3 mm
12:30 PM 59.9°F15.5°C 52.7°F11.5°C 77% 9.2 mph WSW14.8 kmh WSW 11.5 mph18.5 kmh 30.10 in1019.3 mb - 0.00 in0.0 mm 0.01 in0.3 mm
12:35 PM 60.0°F15.6°C 52.8°F11.6°C 77% 6.9 mph WSW11.1 kmh WSW 17.3 mph27.8 kmh 30.10 in1019.3 mb - 0.00 in0.0 mm 0.01 in0.3 mm
12:40 PM 60.5°F15.8°C 52.8°F11.6°C 76% 9.2 mph WSW14.8 kmh WSW 12.7 mph20.4 kmh 30.10 in1019.3 mb - 0.00 in0.0 mm 0.01 in0.3 mm
12:45 PM 61.2°F16.2°C 53.2°F11.8°C 75% 11.5 mph WSW18.5 kmh WSW 18.4 mph29.6 kmh 30.09 in1019.0 mb - 0.00 in0.0 mm 0.01 in0.3 mm
12:50 PM 61.0°F16.1°C 53.0°F11.7°C 75% 10.4 mph WSW16.7 kmh WSW 15.0 mph24.1 kmh 30.10 in1019.3 mb - 0.00 in0.0 mm 0.01 in0.3 mm
12:55 PM 60.7°F15.9°C 52.7°F11.5°C 75% 12.7 mph WSW20.4 kmh WSW 17.3 mph27.8 kmh 30.09 in1019.0 mb - 0.00 in0.0 mm 0.01 in0.3 mm
01:00 PM 60.6°F15.9°C 53.0°F11.7°C 76% 13.8 mph WSW22.2 kmh WSW 20.7 mph33.3 kmh 30.09 in1019.0 mb - 0.00 in0.0 mm 0.01 in0.3 mm
01:05 PM 60.5°F15.8°C 52.9°F11.6°C 76% 9.2 mph W14.8 kmh W 16.1 mph25.9 kmh 30.09 in1019.0 mb - 0.00 in0.0 mm 0.01 in0.3 mm
01:10 PM 60.6°F15.9°C 53.0°F11.7°C 76% 9.2 mph WSW14.8 kmh WSW 11.5 mph18.5 kmh 30.09 in1019.0 mb - 0.00 in0.0 mm 0.01 in0.3 mm
01:15 PM 60.5°F15.8°C 52.8°F11.6°C 76% 12.7 mph WSW20.4 kmh WSW 17.3 mph27.8 kmh 30.09 in1019.0 mb - 0.00 in0.0 mm 0.01 in0.3 mm
01:20 PM 60.1°F15.6°C 52.5°F11.4°C 76% 10.4 mph WSW16.7 kmh WSW 17.3 mph27.8 kmh 30.09 in1019.0 mb - 0.00 in0.0 mm 0.01 in0.3 mm
01:25 PM 59.8°F15.4°C 52.2°F11.2°C 76% 15.0 mph WSW24.1 kmh WSW 19.6 mph31.5 kmh 30.09 in1019.0 mb - 0.00 in0.0 mm 0.01 in0.3 mm
01:30 PM 59.5°F15.3°C 51.9°F11.1°C 76% 10.4 mph WSW16.7 kmh WSW 18.4 mph29.6 kmh 30.10 in1019.3 mb - 0.00 in0.0 mm 0.01 in0.3 mm
01:35 PM 59.3°F15.2°C 52.1°F11.2°C 77% 11.5 mph W18.5 kmh W 19.6 mph31.5 kmh 30.10 in1019.3 mb - 0.00 in0.0 mm 0.01 in0.3 mm
01:40 PM 59.2°F15.1°C 52.0°F11.1°C 77% 6.9 mph WSW11.1 kmh WSW 11.5 mph18.5 kmh 30.10 in1019.3 mb - 0.00 in0.0 mm 0.01 in0.3 mm
01:45 PM 59.1°F15.1°C 51.9°F11.1°C 77% 9.2 mph WSW14.8 kmh WSW 15.0 mph24.1 kmh 30.10 in1019.3 mb - 0.00 in0.0 mm 0.01 in0.3 mm
01:50 PM 59.0°F15.0°C 51.8°F11.0°C 77% 11.5 mph WSW18.5 kmh WSW 13.8 mph22.2 kmh 30.09 in1019.0 mb - 0.00 in0.0 mm 0.01 in0.3 mm
01:55 PM 58.9°F14.9°C 51.7°F10.9°C 77% 9.2 mph WSW14.8 kmh WSW 16.1 mph25.9 kmh 30.09 in1019.0 mb - 0.00 in0.0 mm 0.01 in0.3 mm
02:00 PM 58.9°F14.9°C 51.7°F10.9°C 77% 6.9 mph WSW11.1 kmh WSW 17.3 mph27.8 kmh 30.09 in1019.0 mb - 0.00 in0.0 mm 0.01 in0.3 mm
02:05 PM 58.9°F14.9°C 51.7°F10.9°C 77% 8.1 mph WSW13.0 kmh WSW 12.7 mph20.4 kmh 30.09 in1019.0 mb - 0.00 in0.0 mm 0.01 in0.3 mm
02:10 PM 59.0°F15.0°C 51.8°F11.0°C 77% 9.2 mph WSW14.8 kmh WSW 12.7 mph20.4 kmh 30.09 in1019.0 mb - 0.00 in0.0 mm 0.01 in0.3 mm
02:15 PM 58.9°F14.9°C 51.7°F10.9°C 77% 11.5 mph WSW18.5 kmh WSW 19.6 mph31.5 kmh 30.09 in1019.0 mb - 0.00 in0.0 mm 0.01 in0.3 mm
02:20 PM 58.9°F14.9°C 51.7°F10.9°C 77% 9.2 mph WSW14.8 kmh WSW 12.7 mph20.4 kmh 30.09 in1019.0 mb - 0.00 in0.0 mm 0.01 in0.3 mm
02:25 PM 58.8°F14.9°C 51.6°F10.9°C 77% 10.4 mph WSW16.7 kmh WSW 15.0 mph24.1 kmh 30.09 in1019.0 mb - 0.00 in0.0 mm 0.01 in0.3 mm
02:30 PM 58.7°F14.8°C 51.6°F10.9°C 77% 9.2 mph WSW14.8 kmh WSW 13.8 mph22.2 kmh 30.09 in1019.0 mb - 0.00 in0.0 mm 0.01 in0.3 mm
02:35 PM 58.7°F14.8°C 51.5°F10.8°C 77% 6.9 mph WSW11.1 kmh WSW 9.2 mph14.8 kmh 30.09 in1019.0 mb - 0.00 in0.0 mm 0.01 in0.3 mm
02:40 PM 58.8°F14.9°C 51.6°F10.9°C 77% 10.4 mph W16.7 kmh W 16.1 mph25.9 kmh 30.09 in1019.0 mb - 0.00 in0.0 mm 0.01 in0.3 mm
02:45 PM 58.7°F14.8°C 51.5°F10.8°C 77% 10.4 mph WSW16.7 kmh WSW 11.5 mph18.5 kmh 30.09 in1019.0 mb - 0.00 in0.0 mm 0.01 in0.3 mm
02:50 PM 58.6°F14.8°C 51.4°F10.8°C 77% 6.9 mph WSW11.1 kmh WSW 9.2 mph14.8 kmh 30.09 in1019.0 mb - 0.00 in0.0 mm 0.01 in0.3 mm
02:55 PM 58.6°F14.8°C 51.4°F10.8°C 77% 5.8 mph WSW9.3 kmh WSW 10.4 mph16.7 kmh 30.09 in1019.0 mb - 0.00 in0.0 mm 0.01 in0.3 mm
03:00 PM 58.6°F14.8°C 51.4°F10.8°C 77% 6.9 mph WSW11.1 kmh WSW 13.8 mph22.2 kmh 30.09 in1019.0 mb - 0.00 in0.0 mm 0.01 in0.3 mm
03:05 PM 58.4°F14.7°C 51.2°F10.7°C 77% 8.1 mph WSW13.0 kmh WSW 16.1 mph25.9 kmh 30.09 in1019.0 mb - 0.00 in0.0 mm 0.01 in0.3 mm
03:10 PM 58.1°F14.5°C 50.9°F10.5°C 77% 12.7 mph WSW20.4 kmh WSW 16.1 mph25.9 kmh 30.09 in1019.0 mb - 0.00 in0.0 mm 0.01 in0.3 mm
03:15 PM 58.0°F14.4°C 50.8°F10.4°C 77% 8.1 mph SW13.0 kmh SW 12.7 mph20.4 kmh 30.09 in1019.0 mb - 0.00 in0.0 mm 0.01 in0.3 mm
03:20 PM 57.9°F14.4°C 50.7°F10.4°C 77% 6.9 mph WSW11.1 kmh WSW 11.5 mph18.5 kmh 30.09 in1019.0 mb - 0.00 in0.0 mm 0.01 in0.3 mm
03:25 PM 57.8°F14.3°C 50.6°F10.3°C 77% 9.2 mph SW14.8 kmh SW 11.5 mph18.5 kmh 30.09 in1019.0 mb - 0.00 in0.0 mm 0.01 in0.3 mm
03:30 PM 57.7°F14.3°C 50.6°F10.3°C 77% 10.4 mph WSW16.7 kmh WSW 16.1 mph25.9 kmh 30.09 in1019.0 mb - 0.00 in0.0 mm 0.01 in0.3 mm
03:35 PM 57.7°F14.3°C 50.5°F10.3°C 77% 9.2 mph WSW14.8 kmh WSW 17.3 mph27.8 kmh 30.09 in1019.0 mb - 0.00 in0.0 mm 0.01 in0.3 mm
03:40 PM 57.6°F14.2°C 50.4°F10.2°C 77% 10.4 mph WSW16.7 kmh WSW 13.8 mph22.2 kmh 30.08 in1018.6 mb - 0.00 in0.0 mm 0.01 in0.3 mm
03:45 PM 57.6°F14.2°C 50.4°F10.2°C 77% 8.1 mph WSW13.0 kmh WSW 15.0 mph24.1 kmh 30.08 in1018.6 mb - 0.00 in0.0 mm 0.01 in0.3 mm
03:50 PM 57.5°F14.2°C 50.4°F10.2°C 77% 11.5 mph WSW18.5 kmh WSW 19.6 mph31.5 kmh 30.09 in1019.0 mb - 0.00 in0.0 mm 0.01 in0.3 mm
03:55 PM 57.5°F14.2°C 50.3°F10.2°C 77% 10.4 mph WSW16.7 kmh WSW 13.8 mph22.2 kmh 30.09 in1019.0 mb - 0.00 in0.0 mm 0.01 in0.3 mm
04:00 PM 57.5°F14.2°C 50.3°F10.2°C 77% 11.5 mph WSW18.5 kmh WSW 20.7 mph33.3 kmh 30.09 in1019.0 mb - 0.00 in0.0 mm 0.01 in0.3 mm
04:05 PM 57.5°F14.2°C 50.4°F10.2°C 77% 6.9 mph WSW11.1 kmh WSW 13.8 mph22.2 kmh 30.09 in1019.0 mb - 0.00 in0.0 mm 0.01 in0.3 mm
04:10 PM 57.5°F14.2°C 50.3°F10.2°C 77% 10.4 mph WSW16.7 kmh WSW 12.7 mph20.4 kmh 30.09 in1019.0 mb - 0.00 in0.0 mm 0.01 in0.3 mm
04:15 PM 57.5°F14.2°C 50.3°F10.2°C 77% 5.8 mph WSW9.3 kmh WSW 11.5 mph18.5 kmh 30.09 in1019.0 mb - 0.00 in0.0 mm 0.01 in0.3 mm
04:20 PM 57.4°F14.1°C 50.2°F10.1°C 77% 10.4 mph WSW16.7 kmh WSW 13.8 mph22.2 kmh 30.09 in1019.0 mb - 0.00 in0.0 mm 0.01 in0.3 mm
04:25 PM 57.3°F14.1°C 50.1°F10.1°C 77% 6.9 mph WSW11.1 kmh WSW 11.5 mph18.5 kmh 30.09 in1019.0 mb - 0.00 in0.0 mm 0.01 in0.3 mm
04:30 PM 57.2°F14.0°C 50.1°F10.1°C 77% 10.4 mph WSW16.7 kmh WSW 13.8 mph22.2 kmh 30.09 in1019.0 mb - 0.00 in0.0 mm 0.01 in0.3 mm
04:35 PM 57.2°F14.0°C 50.0°F10.0°C 77% 8.1 mph WSW13.0 kmh WSW 20.7 mph33.3 kmh 30.09 in1019.0 mb - 0.00 in0.0 mm 0.01 in0.3 mm
04:40 PM 57.1°F13.9°C 50.0°F10.0°C 77% 9.2 mph WSW14.8 kmh WSW 16.1 mph25.9 kmh 30.09 in1019.0 mb - 0.00 in0.0 mm 0.01 in0.3 mm
04:45 PM 57.0°F13.9°C 49.9°F9.9°C 77% 11.5 mph WSW18.5 kmh WSW 19.6 mph31.5 kmh 30.09 in1019.0 mb - 0.00 in0.0 mm 0.01 in0.3 mm
04:50 PM 56.9°F13.8°C 49.8°F9.9°C 77% 6.9 mph W11.1 kmh W 10.4 mph16.7 kmh 30.09 in1019.0 mb - 0.00 in0.0 mm 0.01 in0.3 mm
04:55 PM 56.8°F13.8°C 49.7°F9.8°C 77% 8.1 mph W13.0 kmh W 11.5 mph18.5 kmh 30.09 in1019.0 mb - 0.00 in0.0 mm 0.01 in0.3 mm
05:00 PM 56.7°F13.7°C 49.6°F9.8°C 77% 9.2 mph WSW14.8 kmh WSW 16.1 mph25.9 kmh 30.09 in1019.0 mb - 0.00 in0.0 mm 0.01 in0.3 mm
05:05 PM 56.7°F13.7°C 49.6°F9.8°C 77% 5.8 mph W9.3 kmh W 9.2 mph14.8 kmh 30.10 in1019.3 mb - 0.00 in0.0 mm 0.01 in0.3 mm
05:10 PM 56.6°F13.7°C 49.5°F9.7°C 77% 3.5 mph WSW5.6 kmh WSW 10.4 mph16.7 kmh 30.10 in1019.3 mb - 0.00 in0.0 mm 0.01 in0.3 mm
05:15 PM 56.5°F13.6°C 49.7°F9.8°C 78% 6.9 mph W11.1 kmh W 13.8 mph22.2 kmh 30.10 in1019.3 mb - 0.00 in0.0 mm 0.01 in0.3 mm
05:20 PM 56.4°F13.6°C 49.3°F9.6°C 77% 6.9 mph WSW11.1 kmh WSW 11.5 mph18.5 kmh 30.10 in1019.3 mb - 0.00 in0.0 mm 0.01 in0.3 mm
05:25 PM 56.3°F13.5°C 49.2°F9.6°C 77% 8.1 mph W13.0 kmh W 11.5 mph18.5 kmh 30.10 in1019.3 mb - 0.00 in0.0 mm 0.01 in0.3 mm
05:30 PM 56.3°F13.5°C 49.1°F9.5°C 77% 11.5 mph WSW18.5 kmh WSW 17.3 mph27.8 kmh 30.09 in1019.0 mb - 0.00 in0.0 mm 0.01 in0.3 mm
05:35 PM 56.3°F13.5°C 49.2°F9.6°C 77% 12.7 mph WSW20.4 kmh WSW 19.6 mph31.5 kmh 30.10 in1019.3 mb - 0.00 in0.0 mm 0.01 in0.3 mm
05:40 PM 56.3°F13.5°C 49.2°F9.6°C 77% 8.1 mph WSW13.0 kmh WSW 12.7 mph20.4 kmh 30.10 in1019.3 mb - 0.00 in0.0 mm 0.01 in0.3 mm
05:45 PM 56.3°F13.5°C 49.2°F9.6°C 77% 6.9 mph WSW11.1 kmh WSW 12.7 mph20.4 kmh 30.10 in1019.3 mb - 0.00 in0.0 mm 0.01 in0.3 mm
05:50 PM 56.2°F13.4°C 49.1°F9.5°C 77% 6.9 mph WSW11.1 kmh WSW 11.5 mph18.5 kmh 30.10 in1019.3 mb - 0.00 in0.0 mm 0.01 in0.3 mm
05:55 PM 56.2°F13.4°C 49.1°F9.5°C 77% 5.8 mph SW9.3 kmh SW 9.2 mph14.8 kmh 30.10 in1019.3 mb - 0.00 in0.0 mm 0.01 in0.3 mm
06:00 PM 56.2°F13.4°C 49.1°F9.5°C 77% 4.6 mph WSW7.4 kmh WSW 6.9 mph11.1 kmh 30.10 in1019.3 mb - 0.00 in0.0 mm 0.01 in0.3 mm
06:05 PM 56.2°F13.4°C 49.1°F9.5°C 77% 4.6 mph WSW7.4 kmh WSW 6.9 mph11.1 kmh 30.10 in1019.3 mb - 0.00 in0.0 mm 0.01 in0.3 mm
06:10 PM 56.2°F13.4°C 49.1°F9.5°C 77% 4.6 mph W7.4 kmh W 9.2 mph14.8 kmh 30.10 in1019.3 mb - 0.00 in0.0 mm 0.01 in0.3 mm
06:15 PM 56.2°F13.4°C 49.1°F9.5°C 77% 4.6 mph WSW7.4 kmh WSW 11.5 mph18.5 kmh 30.11 in1019.6 mb - 0.00 in0.0 mm 0.01 in0.3 mm
06:20 PM 56.2°F13.4°C 49.1°F9.5°C 77% 4.6 mph W7.4 kmh W 9.2 mph14.8 kmh 30.11 in1019.6 mb - 0.00 in0.0 mm 0.01 in0.3 mm
06:25 PM 56.2°F13.4°C 49.1°F9.5°C 77% 5.8 mph WSW9.3 kmh WSW 9.2 mph14.8 kmh 30.11 in1019.6 mb - 0.00 in0.0 mm 0.01 in0.3 mm
06:30 PM 56.1°F13.4°C 49.0°F9.4°C 77% 2.3 mph W3.7 kmh W 5.8 mph9.3 kmh 30.11 in1019.6 mb - 0.00 in0.0 mm 0.01 in0.3 mm
06:35 PM 56.1°F13.4°C 49.0°F9.4°C 77% 3.5 mph W5.6 kmh W 6.9 mph11.1 kmh 30.11 in1019.6 mb - 0.00 in0.0 mm 0.01 in0.3 mm
06:40 PM 56.0°F13.3°C 49.2°F9.6°C 78% 2.3 mph W3.7 kmh W 5.8 mph9.3 kmh 30.11 in1019.6 mb - 0.00 in0.0 mm 0.01 in0.3 mm
06:45 PM 56.0°F13.3°C 49.2°F9.6°C 78% 4.6 mph WSW7.4 kmh WSW 8.1 mph13.0 kmh 30.11 in1019.6 mb - 0.00 in0.0 mm 0.01 in0.3 mm
06:50 PM 56.0°F13.3°C 48.9°F9.4°C 77% 2.3 mph SW3.7 kmh SW 4.6 mph7.4 kmh 30.11 in1019.6 mb - 0.00 in0.0 mm 0.01 in0.3 mm
06:55 PM 55.9°F13.3°C 49.2°F9.6°C 78% 4.6 mph W7.4 kmh W 6.9 mph11.1 kmh 30.11 in1019.6 mb - 0.00 in0.0 mm 0.01 in0.3 mm
07:00 PM 55.9°F13.3°C 48.8°F9.3°C 77% 4.6 mph W7.4 kmh W 11.5 mph18.5 kmh 30.11 in1019.6 mb - 0.00 in0.0 mm 0.01 in0.3 mm
07:05 PM 55.9°F13.3°C 48.8°F9.3°C 77% 3.5 mph W5.6 kmh W 5.8 mph9.3 kmh 30.11 in1019.6 mb - 0.00 in0.0 mm 0.01 in0.3 mm
07:10 PM 55.8°F13.2°C 48.7°F9.3°C 77% 4.6 mph WSW7.4 kmh WSW 8.1 mph13.0 kmh 30.11 in1019.6 mb - 0.00 in0.0 mm 0.01 in0.3 mm
07:15 PM 55.8°F13.2°C 48.7°F9.3°C 77% 4.6 mph W7.4 kmh W 6.9 mph11.1 kmh 30.11 in1019.6 mb - 0.00 in0.0 mm 0.01 in0.3 mm
07:20 PM 55.8°F13.2°C 48.7°F9.3°C 77% 4.6 mph WSW7.4 kmh WSW 9.2 mph14.8 kmh 30.11 in1019.6 mb - 0.00 in0.0 mm 0.01 in0.3 mm
07:25 PM 55.7°F13.2°C 48.6°F9.2°C 77% 3.5 mph W5.6 kmh W 8.1 mph13.0 kmh 30.11 in1019.6 mb - 0.00 in0.0 mm 0.01 in0.3 mm
07:30 PM 55.7°F13.2°C 48.6°F9.2°C 77% 4.6 mph WSW7.4 kmh WSW 9.2 mph14.8 kmh 30.11 in1019.6 mb - 0.00 in0.0 mm 0.01 in0.3 mm
07:35 PM 55.7°F13.2°C 48.6°F9.2°C 77% 4.6 mph W7.4 kmh W 6.9 mph11.1 kmh 30.11 in1019.6 mb - 0.00 in0.0 mm 0.01 in0.3 mm
07:40 PM 55.7°F13.2°C 48.6°F9.2°C 77% 4.6 mph WSW7.4 kmh WSW 8.1 mph13.0 kmh 30.10 in1019.3 mb - 0.00 in0.0 mm 0.01 in0.3 mm
07:45 PM 55.6°F13.1°C 48.5°F9.2°C 77% 4.6 mph W7.4 kmh W 6.9 mph11.1 kmh 30.10 in1019.3 mb - 0.00 in0.0 mm 0.01 in0.3 mm
07:50 PM 55.5°F13.1°C 48.4°F9.1°C 77% 5.8 mph W9.3 kmh W 12.7 mph20.4 kmh 30.11 in1019.6 mb - 0.00 in0.0 mm 0.01 in0.3 mm
07:55 PM 55.6°F13.1°C 48.5°F9.2°C 77% 6.9 mph WSW11.1 kmh WSW 9.2 mph14.8 kmh 30.11 in1019.6 mb - 0.00 in0.0 mm 0.01 in0.3 mm
08:00 PM 55.6°F13.1°C 48.5°F9.2°C 77% 5.8 mph WSW9.3 kmh WSW 12.7 mph20.4 kmh 30.10 in1019.3 mb - 0.00 in0.0 mm 0.01 in0.3 mm
08:05 PM 55.5°F13.1°C 48.4°F9.1°C 77% 4.6 mph W7.4 kmh W 10.4 mph16.7 kmh 30.11 in1019.6 mb - 0.00 in0.0 mm 0.01 in0.3 mm
08:10 PM 55.4°F13.0°C 48.3°F9.1°C 77% 5.8 mph W9.3 kmh W 11.5 mph18.5 kmh 30.10 in1019.3 mb - 0.00 in0.0 mm 0.01 in0.3 mm
08:15 PM 55.3°F12.9°C 48.2°F9.0°C 77% 5.8 mph W9.3 kmh W 8.1 mph13.0 kmh 30.10 in1019.3 mb - 0.00 in0.0 mm 0.01 in0.3 mm
08:20 PM 55.2°F12.9°C 48.1°F8.9°C 77% 6.9 mph WSW11.1 kmh WSW 11.5 mph18.5 kmh 30.10 in1019.3 mb - 0.00 in0.0 mm 0.01 in0.3 mm
08:25 PM 55.2°F12.9°C 48.1°F8.9°C 77% 4.6 mph W7.4 kmh W 8.1 mph13.0 kmh 30.10 in1019.3 mb - 0.00 in0.0 mm 0.01 in0.3 mm
08:30 PM 55.3°F12.9°C 48.2°F9.0°C 77% 5.8 mph W9.3 kmh W 8.1 mph13.0 kmh 30.10 in1019.3 mb - 0.00 in0.0 mm 0.01 in0.3 mm
08:35 PM 55.4°F13.0°C 48.3°F9.1°C 77% 2.3 mph WSW3.7 kmh WSW 3.5 mph5.6 kmh 30.10 in1019.3 mb - 0.00 in0.0 mm 0.01 in0.3 mm
08:40 PM 55.4°F13.0°C 48.3°F9.1°C 77% 3.5 mph W5.6 kmh W 5.8 mph9.3 kmh 30.10 in1019.3 mb - 0.00 in0.0 mm 0.01 in0.3 mm
08:45 PM 55.4°F13.0°C 48.3°F9.1°C 77% 3.5 mph WSW5.6 kmh WSW 6.9 mph11.1 kmh 30.10 in1019.3 mb - 0.00 in0.0 mm 0.01 in0.3 mm
08:50 PM 55.4°F13.0°C 48.3°F9.1°C 77% 4.6 mph W7.4 kmh W 8.1 mph13.0 kmh 30.10 in1019.3 mb - 0.00 in0.0 mm 0.01 in0.3 mm
08:55 PM 55.3°F12.9°C 48.2°F9.0°C 77% 3.5 mph WSW5.6 kmh WSW 9.2 mph14.8 kmh 30.10 in1019.3 mb - 0.00 in0.0 mm 0.01 in0.3 mm
09:00 PM 55.3°F12.9°C 48.2°F9.0°C 77% 2.3 mph NW3.7 kmh NW 3.5 mph5.6 kmh 30.10 in1019.3 mb - 0.00 in0.0 mm 0.01 in0.3 mm
09:05 PM 55.3°F12.9°C 48.3°F9.1°C 77% 1.2 mph W1.9 kmh W 3.5 mph5.6 kmh 30.10 in1019.3 mb - 0.00 in0.0 mm 0.01 in0.3 mm
09:10 PM 55.3°F12.9°C 48.2°F9.0°C 77% Calm Calm 1.2 mph1.9 kmh 30.09 in1019.0 mb - 0.00 in0.0 mm 0.01 in0.3 mm
09:15 PM 55.3°F12.9°C 48.2°F9.0°C 77% 2.3 mph W3.7 kmh W 5.8 mph9.3 kmh 30.09 in1019.0 mb - 0.00 in0.0 mm 0.01 in0.3 mm
09:20 PM 55.4°F13.0°C 48.3°F9.1°C 77% 3.5 mph WSW5.6 kmh WSW 4.6 mph7.4 kmh 30.09 in1019.0 mb - 0.00 in0.0 mm 0.01 in0.3 mm
09:25 PM 55.4°F13.0°C 48.3°F9.1°C 77% 2.3 mph WNW3.7 kmh WNW 3.5 mph5.6 kmh 30.09 in1019.0 mb - 0.00 in0.0 mm 0.01 in0.3 mm
09:30 PM 55.3°F12.9°C 48.2°F9.0°C 77% 2.3 mph WSW3.7 kmh WSW 5.8 mph9.3 kmh 30.09 in1019.0 mb - 0.00 in0.0 mm 0.01 in0.3 mm
09:35 PM 55.1°F12.8°C 48.0°F8.9°C 77% 4.6 mph W7.4 kmh W 6.9 mph11.1 kmh 30.09 in1019.0 mb - 0.00 in0.0 mm 0.01 in0.3 mm
09:40 PM 55.1°F12.8°C 48.0°F8.9°C 77% 4.6 mph WSW7.4 kmh WSW 5.8 mph9.3 kmh 30.09 in1019.0 mb - 0.00 in0.0 mm 0.01 in0.3 mm
09:45 PM 55.2°F12.9°C 48.1°F8.9°C 77% 2.3 mph W3.7 kmh W 11.5 mph18.5 kmh 30.09 in1019.0 mb - 0.00 in0.0 mm 0.01 in0.3 mm
09:50 PM 55.4°F13.0°C 48.3°F9.1°C 77% 8.1 mph WSW13.0 kmh WSW 10.4 mph16.7 kmh 30.09 in1019.0 mb - 0.00 in0.0 mm 0.01 in0.3 mm
09:55 PM 55.6°F13.1°C 48.5°F9.2°C 77% 6.9 mph WSW11.1 kmh WSW 11.5 mph18.5 kmh 30.09 in1019.0 mb - 0.00 in0.0 mm 0.01 in0.3 mm
10:00 PM 55.9°F13.3°C 48.8°F9.3°C 77% 10.4 mph WSW16.7 kmh WSW 13.8 mph22.2 kmh 30.09 in1019.0 mb - 0.00 in0.0 mm 0.01 in0.3 mm
10:05 PM 56.2°F13.4°C 49.1°F9.5°C 77% 9.2 mph WSW14.8 kmh WSW 11.5 mph18.5 kmh 30.09 in1019.0 mb - 0.00 in0.0 mm 0.01 in0.3 mm
10:10 PM 56.4°F13.6°C 49.3°F9.6°C 77% 9.2 mph WSW14.8 kmh WSW 13.8 mph22.2 kmh 30.09 in1019.0 mb - 0.00 in0.0 mm 0.01 in0.3 mm
10:15 PM 56.6°F13.7°C 49.5°F9.7°C 77% 6.9 mph WSW11.1 kmh WSW 16.1 mph25.9 kmh 30.09 in1019.0 mb - 0.00 in0.0 mm 0.01 in0.3 mm
10:20 PM 56.6°F13.7°C 49.5°F9.7°C 77% 8.1 mph WSW13.0 kmh WSW 11.5 mph18.5 kmh 30.09 in1019.0 mb - 0.00 in0.0 mm 0.01 in0.3 mm
10:25 PM 56.7°F13.7°C 49.6°F9.8°C 77% 5.8 mph WSW9.3 kmh WSW 10.4 mph16.7 kmh 30.09 in1019.0 mb - 0.00 in0.0 mm 0.01 in0.3 mm
10:30 PM 56.6°F13.7°C 49.5°F9.7°C 77% 8.1 mph WSW13.0 kmh WSW 15.0 mph24.1 kmh 30.09 in1019.0 mb - 0.00 in0.0 mm 0.01 in0.3 mm
10:35 PM 56.6°F13.7°C 49.5°F9.7°C 77% 6.9 mph WSW11.1 kmh WSW 9.2 mph14.8 kmh 30.09 in1019.0 mb - 0.00 in0.0 mm 0.01 in0.3 mm
10:40 PM 56.5°F13.6°C 49.4°F9.7°C 77% 5.8 mph WSW9.3 kmh WSW 11.5 mph18.5 kmh 30.09 in1019.0 mb - 0.00 in0.0 mm 0.01 in0.3 mm
10:45 PM 56.4°F13.6°C 49.3°F9.6°C 77% 5.8 mph WSW9.3 kmh WSW 11.5 mph18.5 kmh 30.09 in1019.0 mb - 0.00 in0.0 mm 0.01 in0.3 mm
10:50 PM 56.4°F13.6°C 49.3°F9.6°C 77% 5.8 mph WSW9.3 kmh WSW 10.4 mph16.7 kmh 30.09 in1019.0 mb - 0.00 in0.0 mm 0.01 in0.3 mm
10:55 PM 56.4°F13.6°C 49.3°F9.6°C 77% 5.8 mph WSW9.3 kmh WSW 11.5 mph18.5 kmh 30.09 in1019.0 mb - 0.00 in0.0 mm 0.01 in0.3 mm
11:00 PM 56.4°F13.6°C 49.3°F9.6°C 77% 6.9 mph WSW11.1 kmh WSW 10.4 mph16.7 kmh 30.09 in1019.0 mb - 0.00 in0.0 mm 0.01 in0.3 mm
11:05 PM 56.5°F13.6°C 49.4°F9.7°C 77% 5.8 mph WSW9.3 kmh WSW 6.9 mph11.1 kmh 30.09 in1019.0 mb - 0.00 in0.0 mm 0.01 in0.3 mm
11:10 PM 56.5°F13.6°C 49.4°F9.7°C 77% 4.6 mph WSW7.4 kmh WSW 6.9 mph11.1 kmh 30.09 in1019.0 mb - 0.00 in0.0 mm 0.01 in0.3 mm
11:15 PM 56.5°F13.6°C 49.4°F9.7°C 77% 6.9 mph WSW11.1 kmh WSW 10.4 mph16.7 kmh 30.09 in1019.0 mb - 0.00 in0.0 mm 0.01 in0.3 mm
11:20 PM 56.5°F13.6°C 49.4°F9.7°C 77% 6.9 mph WSW11.1 kmh WSW 11.5 mph18.5 kmh 30.09 in1019.0 mb - 0.00 in0.0 mm 0.01 in0.3 mm
11:25 PM 56.5°F13.6°C 49.4°F9.7°C 77% 4.6 mph WSW7.4 kmh WSW 6.9 mph11.1 kmh 30.09 in1019.0 mb - 0.00 in0.0 mm 0.01 in0.3 mm
11:30 PM 56.4°F13.6°C 49.3°F9.6°C 77% 5.8 mph WSW9.3 kmh WSW 6.9 mph11.1 kmh 30.09 in1019.0 mb - 0.00 in0.0 mm 0.01 in0.3 mm
11:35 PM 56.4°F13.6°C 49.3°F9.6°C 77% 3.5 mph WSW5.6 kmh WSW 8.1 mph13.0 kmh 30.09 in1019.0 mb - 0.00 in0.0 mm 0.01 in0.3 mm
11:40 PM 56.3°F13.5°C 49.2°F9.6°C 77% 6.9 mph WSW11.1 kmh WSW 11.5 mph18.5 kmh 30.09 in1019.0 mb - 0.00 in0.0 mm 0.01 in0.3 mm
11:45 PM 56.2°F13.4°C 49.1°F9.5°C 77% 4.6 mph WSW7.4 kmh WSW 6.9 mph11.1 kmh 30.09 in1019.0 mb - 0.00 in0.0 mm 0.01 in0.3 mm
11:50 PM 56.2°F13.4°C 49.1°F9.5°C 77% 4.6 mph WSW7.4 kmh WSW 9.2 mph14.8 kmh 30.08 in1018.6 mb - 0.00 in0.0 mm 0.01 in0.3 mm
11:55 PM 56.2°F13.4°C 49.1°F9.5°C 77% 4.6 mph WSW7.4 kmh WSW 9.2 mph14.8 kmh 30.08 in1018.6 mb - 0.00 in0.0 mm 0.01 in0.3 mm